Hesperides — EBBW — position and weather

sailwx.info

Track history (hours):
 
Tides and Currents Weather Stations Pressure Air Temp Water Temp Dewpoint Dewpoint Depression Visibility Wind Speed Wind Dir Waves Ship Positions

Oceanographic research ship Hesperides (Spain)

Detailed information on ship capabilities available from University of Delaware's Ocean Information Center.

Last reported at 2020-Apr-20 12:30 UTC. Time now 2020-Jul-15 17:37 UTC.
Position N 36°16' W 004°54'.
Warning: this ship's position is months out of date.

Length 82 m; draft 5.5 m.

Type: Ship. MMSI: 224886000.

Date/timePositionNaut miles runAvg speedWind from/ knotsBaromVisibWave heightAir tempDewpointWater temp
2020-Apr-20 12:30N 36°16' W 004°54'3 6.5
2020-Apr-20 12:00N 36°15' W 004°57'  
2020-Apr-17 11:00N 28°19' W 015°09'510.5
2020-Apr-17 10:30N 28°15' W 015°13'13 8.8
2020-Apr-17 09:00N 28°08' W 015°25'4 2.1
2020-Apr-17 07:00N 28°05' W 015°22'2 4.2
2020-Apr-17 06:30N 28°03' W 015°20'2 3.9
2020-Apr-17 06:00N 28°02' W 015°19'2 3.8
2020-Apr-17 05:30N 28°00' W 015°18'8 4.1
2020-Apr-17 03:30N 27°52' W 015°18'  
Track history (hours):
 
Tides and Currents Weather Stations Pressure Air Temp Water Temp Dewpoint Dewpoint Depression Visibility Wind Speed Wind Dir Waves Ship Positions

Oceanographic research ship Hesperides (Spain)

Detailed information on ship capabilities available from University of Delaware's Ocean Information Center.

Last reported at 2020-Apr-20 12:30 UTC. Time now 2020-Jul-15 17:37 UTC.
Position N 36°16' W 004°54'.
Warning: this ship's position is months out of date.

Length 82 m; draft 5.5 m.

Type: Ship. MMSI: 224886000.

Date/timePositionNaut miles runAvg speedWind from/ knotsBaromVisibWave heightAir tempDewpointWater temp
2020-Apr-20 12:30N 36°16' W 004°54'3 6.5
2020-Apr-20 12:00N 36°15' W 004°57'  
2020-Apr-17 11:00N 28°19' W 015°09'510.5
2020-Apr-17 10:30N 28°15' W 015°13'13 8.8
2020-Apr-17 09:00N 28°08' W 015°25'4 2.1
2020-Apr-17 07:00N 28°05' W 015°22'2 4.2
2020-Apr-17 06:30N 28°03' W 015°20'2 3.9
2020-Apr-17 06:00N 28°02' W 015°19'2 3.8
2020-Apr-17 05:30N 28°00' W 015°18'8 4.1
2020-Apr-17 03:30N 27°52' W 015°18'  

Dump ship's entire track history